Time;durP1;ratioP1;P1;durP2;ratioP2;P2;SDS_P1;SDS_P2;PMS_P1;PMS_P2;Temp;Humidity;BMP_temperature;BMP_pressure;BME280_temperature;BME280_humidity;BME280_pressure;Samples;Min_cycle;Max_cycle;Signal;HPM_P1;HPM_P2
2021/03/13 00:01:11;;;;;;;4.50;2.17;;;7.90;99.90;;;;;;5051531;28;20452;-70
2021/03/13 00:03:37;;;;;;;2.37;1.80;;;7.90;99.90;;;;;;5054690;28;20191;-70
2021/03/13 00:06:02;;;;;;;8.43;3.10;;;7.90;99.90;;;;;;5053704;28;20816;-70
2021/03/13 00:08:28;;;;;;;5.70;2.50;;;7.80;99.90;;;;;;5053558;28;20173;-70
2021/03/13 00:10:54;;;;;;;5.87;2.20;;;7.80;99.90;;;;;;5054489;28;20186;-69
2021/03/13 00:13:19;;;;;;;4.60;2.17;;;7.90;99.90;;;;;;5052068;28;20492;-69
2021/03/13 00:15:46;;;;;;;3.87;2.10;;;7.90;99.90;;;;;;5054476;28;20180;-70
2021/03/13 00:18:12;;;;;;;5.80;2.10;;;7.90;99.90;;;;;;5053754;28;20232;-69
2021/03/13 00:20:40;;;;;;;5.90;2.57;;;7.90;99.90;;;;;;5053755;28;20486;-68
2021/03/13 00:23:06;;;;;;;5.57;2.60;;;7.80;99.90;;;;;;5052114;28;20494;-69
2021/03/13 00:25:33;;;;;;;7.93;3.83;;;7.90;99.90;;;;;;5053883;28;20452;-69
2021/03/13 00:27:59;;;;;;;3.70;2.33;;;7.90;99.90;;;;;;5053692;28;20413;-69
2021/03/13 00:30:27;;;;;;;4.33;3.47;;;7.90;99.90;;;;;;5053253;28;20832;-69
2021/03/13 00:32:58;;;;;;;5.03;1.80;;;7.90;99.90;;;;;;5052484;28;20275;-69
2021/03/13 00:35:25;;;;;;;6.37;2.37;;;8.00;99.90;;;;;;5054757;28;20746;-68
2021/03/13 00:37:52;;;;;;;3.13;2.00;;;8.00;99.90;;;;;;5054033;28;20468;-71
2021/03/13 00:40:20;;;;;;;6.47;2.50;;;8.00;99.90;;;;;;5054564;28;20432;-69
2021/03/13 00:42:45;;;;;;;4.73;2.50;;;8.10;99.90;;;;;;5054350;28;20419;-69
2021/03/13 00:45:13;;;;;;;7.70;2.00;;;8.10;99.90;;;;;;5051966;28;20566;-69
2021/03/13 00:47:39;;;;;;;3.13;2.20;;;8.00;99.90;;;;;;5054063;28;20202;-69
2021/03/13 00:50:07;;;;;;;4.27;2.00;;;7.90;99.90;;;;;;5053893;28;20428;-69
2021/03/13 00:52:33;;;;;;;4.93;2.23;;;7.90;99.90;;;;;;5053598;28;20563;-69
2021/03/13 00:54:58;;;;;;;5.70;3.03;;;7.90;99.90;;;;;;5052533;28;20426;-69
2021/03/13 00:57:24;;;;;;;6.30;3.10;;;7.80;99.90;;;;;;5054165;28;20430;-69
2021/03/13 00:59:50;;;;;;;2.87;2.10;;;7.80;99.90;;;;;;5052669;28;20218;-69
2021/03/13 01:02:16;;;;;;;3.93;2.30;;;7.60;99.90;;;;;;5053950;28;20408;-69
2021/03/13 01:04:41;;;;;;;5.03;2.43;;;7.70;99.90;;;;;;5051702;28;20188;-69
2021/03/13 01:07:07;;;;;;;2.50;1.93;;;7.60;99.90;;;;;;5034121;28;20210;-69
2021/03/13 01:09:33;;;;;;;6.60;2.90;;;7.60;99.90;;;;;;5033418;28;20171;-69
2021/03/13 01:11:59;;;;;;;3.93;3.07;;;7.50;99.90;;;;;;5034234;28;20443;-69
2021/03/13 01:14:24;;;;;;;3.30;2.50;;;7.40;99.90;;;;;;5033671;28;20904;-69
2021/03/13 01:16:50;;;;;;;6.20;2.60;;;7.40;99.90;;;;;;5034842;28;20188;-69
2021/03/13 01:19:16;;;;;;;4.50;3.20;;;7.30;99.90;;;;;;5033275;28;20254;-69
2021/03/13 01:21:42;;;;;;;5.93;3.40;;;7.40;99.90;;;;;;5036267;28;20210;-69
2021/03/13 01:24:07;;;;;;;3.53;3.20;;;7.40;99.90;;;;;;5037253;28;20455;-69
2021/03/13 01:26:33;;;;;;;4.97;3.57;;;7.40;99.90;;;;;;5038704;28;20262;-69
2021/03/13 01:28:58;;;;;;;5.67;3.33;;;7.40;99.90;;;;;;5037406;28;20249;-69
2021/03/13 01:31:24;;;;;;;7.53;4.03;;;7.40;99.90;;;;;;5037886;28;20246;-68
2021/03/13 01:33:49;;;;;;;5.87;3.30;;;7.40;99.90;;;;;;5042633;28;20183;-69
2021/03/13 01:36:15;;;;;;;4.50;3.00;;;7.50;99.90;;;;;;5050040;28;20178;-69
2021/03/13 01:38:40;;;;;;;4.30;2.63;;;7.50;99.90;;;;;;5070828;28;20179;-69
2021/03/13 01:41:06;;;;;;;6.30;2.87;;;7.60;99.90;;;;;;5057164;28;20670;-69
2021/03/13 01:43:31;;;;;;;6.90;3.20;;;7.60;99.90;;;;;;5057174;28;20198;-69
2021/03/13 01:45:57;;;;;;;3.57;2.83;;;7.70;99.90;;;;;;5057491;28;20213;-69
2021/03/13 01:48:34;;;;;;;5.40;2.80;;;7.60;99.90;;;;;;5044295;28;20179;-69
2021/03/13 01:51:01;;;;;;;4.60;2.90;;;7.60;99.90;;;;;;5037226;28;20277;-69
2021/03/13 01:53:27;;;;;;;2.90;2.70;;;7.60;99.90;;;;;;5037127;28;20485;-69
2021/03/13 01:55:53;;;;;;;4.70;2.80;;;7.60;99.90;;;;;;5037365;28;20512;-69
2021/03/13 01:58:18;;;;;;;4.13;3.10;;;7.60;99.90;;;;;;5037457;28;20612;-69
2021/03/13 02:00:44;;;;;;;8.47;3.10;;;7.60;99.90;;;;;;5036789;28;20443;-69
2021/03/13 02:03:11;;;;;;;6.73;4.83;;;7.70;99.90;;;;;;5036827;28;20211;-69
2021/03/13 02:05:42;;;;;;;4.33;2.83;;;7.70;99.90;;;;;;5037101;28;20469;-69
2021/03/13 02:08:10;;;;;;;8.77;3.17;;;7.80;99.90;;;;;;5036538;28;20745;-68
2021/03/13 02:11:10;;;;;;;4.07;3.03;;;7.70;99.90;;;;;;5037561;28;20437;-69
2021/03/13 02:13:54;;;;;;;3.63;2.90;;;7.60;99.90;;;;;;5037034;28;20410;-69
2021/03/13 02:16:39;;;;;;;5.05;3.00;;;7.60;99.90;;;;;;5036824;28;20412;-69
2021/03/13 02:19:44;;;;;;;7.37;3.40;;;7.60;99.90;;;;;;5037491;28;20197;-69
2021/03/13 02:22:13;;;;;;;4.97;3.13;;;7.50;99.90;;;;;;5036730;28;20429;-69
2021/03/13 02:24:57;;;;;;;3.60;3.00;;;7.50;99.90;;;;;;5036730;28;20409;-69
2021/03/13 02:27:26;;;;;;;4.13;2.97;;;7.50;99.90;;;;;;5036499;28;20393;-68
2021/03/13 02:30:04;;;;;;;5.63;3.50;;;7.50;99.90;;;;;;5055658;28;20436;-69
2021/03/13 02:32:57;;;;;;;5.90;3.20;;;7.50;99.90;;;;;;5055453;28;20398;-69
2021/03/13 02:35:34;;;;;;;8.40;3.67;;;7.50;99.90;;;;;;5056261;28;20502;-68
2021/03/13 02:38:55;;;;;;;4.10;3.50;;;7.50;99.90;;;;;;5054260;28;20394;-68
2021/03/13 02:41:27;;;;;;;6.03;3.60;;;7.50;99.90;;;;;;5073800;28;20439;-69
2021/03/13 02:43:57;;;;;;;6.57;3.80;;;7.50;99.90;;;;;;5074020;28;20449;-69
2021/03/13 02:46:24;;;;;;;5.63;3.73;;;7.50;99.90;;;;;;5075260;28;21002;-68
2021/03/13 02:48:51;;;;;;;5.77;4.13;;;7.60;99.90;;;;;;5077270;28;20454;-68
2021/03/13 02:51:19;;;;;;;8.97;4.30;;;7.60;99.90;;;;;;5078087;28;20431;-69
2021/03/13 02:53:46;;;;;;;7.13;4.57;;;7.60;99.90;;;;;;5074372;28;20498;-68
2021/03/13 02:56:12;;;;;;;4.53;3.80;;;7.60;99.90;;;;;;5073421;28;20559;-68
2021/03/13 02:58:40;;;;;;;5.07;3.80;;;7.60;99.90;;;;;;5073408;28;20425;-68
2021/03/13 03:01:07;;;;;;;4.50;4.10;;;7.50;99.90;;;;;;5071809;28;20467;-69
2021/03/13 03:03:35;;;;;;;4.50;3.67;;;7.50;99.90;;;;;;5073796;28;20420;-69
2021/03/13 03:06:01;;;;;;;4.27;3.67;;;7.50;99.90;;;;;;5074054;28;20451;-68
2021/03/13 03:08:27;;;;;;;4.03;3.63;;;7.50;99.90;;;;;;5073471;28;20404;-68
2021/03/13 03:10:54;;;;;;;5.83;3.97;;;7.50;99.90;;;;;;5071361;28;20678;-69
2021/03/13 03:13:23;;;;;;;3.83;3.17;;;7.60;99.90;;;;;;5073743;28;20404;-69
2021/03/13 03:15:49;;;;;;;4.13;3.73;;;7.50;99.90;;;;;;5061582;28;20978;-69
2021/03/13 03:18:17;;;;;;;6.40;3.33;;;7.50;99.90;;;;;;5054995;28;20431;-68
2021/03/13 03:20:46;;;;;;;4.33;3.43;;;7.50;99.90;;;;;;5053120;28;20545;-69
2021/03/13 03:23:12;;;;;;;4.10;3.00;;;7.50;99.90;;;;;;5055042;28;20794;-68
2021/03/13 03:25:37;;;;;;;3.07;2.77;;;7.50;99.90;;;;;;5054855;28;20453;-69
2021/03/13 03:28:03;;;;;;;4.43;3.13;;;7.50;99.90;;;;;;5055126;28;20409;-68
2021/03/13 03:30:32;;;;;;;2.67;2.47;;;7.40;99.90;;;;;;5055292;28;20610;-68
2021/03/13 03:32:58;;;;;;;3.00;2.70;;;7.40;99.90;;;;;;5053491;28;20445;-68
2021/03/13 03:35:26;;;;;;;3.70;2.60;;;7.40;99.90;;;;;;5055339;28;20531;-68
2021/03/13 03:37:54;;;;;;;2.70;2.50;;;7.40;99.90;;;;;;5055006;28;20422;-68
2021/03/13 03:40:20;;;;;;;2.73;2.53;;;7.50;99.90;;;;;;5053012;28;20438;-69
2021/03/13 03:43:08;;;;;;;3.13;2.70;;;7.50;99.90;;;;;;5052998;28;20510;-69
2021/03/13 03:45:34;;;;;;;2.33;2.13;;;7.50;99.90;;;;;;5054684;28;20506;-69
2021/03/13 03:48:08;;;;;;;2.00;1.80;;;7.50;99.90;;;;;;5054740;28;20405;-69
2021/03/13 03:50:35;;;;;;;2.40;1.83;;;7.50;99.90;;;;;;5051062;28;20437;-69
2021/03/13 03:53:01;;;;;;;2.37;1.60;;;7.40;99.90;;;;;;5054480;28;20491;-69
2021/03/13 03:55:28;;;;;;;2.47;1.70;;;7.40;99.90;;;;;;5054816;28;20437;-69
2021/03/13 03:57:57;;;;;;;1.60;1.50;;;7.40;99.90;;;;;;5054905;28;20773;-69
2021/03/13 04:00:24;;;;;;;2.90;1.57;;;7.50;99.90;;;;;;5054970;28;20574;-68
2021/03/13 04:02:52;;;;;;;1.40;1.30;;;7.50;99.90;;;;;;5052550;28;20468;-68
2021/03/13 04:05:19;;;;;;;1.50;1.40;;;7.40;99.90;;;;;;5054519;28;20622;-69
2021/03/13 04:07:45;;;;;;;1.57;1.13;;;7.50;99.90;;;;;;5054710;28;20479;-69
2021/03/13 04:10:12;;;;;;;1.40;1.30;;;7.50;99.90;;;;;;5053981;28;20459;-69
2021/03/13 04:12:39;;;;;;;1.30;1.20;;;7.50;99.90;;;;;;5044969;28;20449;-69
2021/03/13 04:15:10;;;;;;;1.80;1.20;;;7.40;99.90;;;;;;5048401;28;20961;-69
2021/03/13 04:17:37;;;;;;;2.70;1.13;;;7.50;99.90;;;;;;5054012;28;20419;-68
2021/03/13 04:20:07;;;;;;;1.30;1.20;;;7.50;99.90;;;;;;5055650;28;20507;-69
2021/03/13 04:22:33;;;;;;;2.30;1.17;;;7.50;99.90;;;;;;5054782;28;20795;-69
2021/03/13 04:25:02;;;;;;;1.23;1.13;;;7.50;99.90;;;;;;5035075;28;20455;-69
2021/03/13 04:27:28;;;;;;;1.20;1.10;;;7.50;99.90;;;;;;5034505;28;20804;-69
2021/03/13 04:29:54;;;;;;;1.57;1.03;;;7.50;99.90;;;;;;5036360;28;20430;-69
2021/03/13 04:32:22;;;;;;;1.50;1.40;;;7.50;99.90;;;;;;5037280;28;20191;-69
2021/03/13 04:34:49;;;;;;;1.20;1.20;;;7.50;99.90;;;;;;5036310;28;20701;-69
2021/03/13 04:37:15;;;;;;;1.17;1.07;;;7.50;99.90;;;;;;5035755;28;20418;-69
2021/03/13 04:39:41;;;;;;;1.20;1.10;;;7.50;99.90;;;;;;5035970;28;20437;-69
2021/03/13 04:42:08;;;;;;;1.27;1.03;;;7.50;99.90;;;;;;5036199;28;20436;-69
2021/03/13 04:44:34;;;;;;;0.90;0.90;;;7.60;99.90;;;;;;5034443;28;20434;-69
2021/03/13 04:47:01;;;;;;;0.90;0.90;;;7.50;99.90;;;;;;5033667;28;20503;-69
2021/03/13 04:49:26;;;;;;;1.20;1.03;;;7.50;99.90;;;;;;5033445;28;20409;-69
2021/03/13 04:51:53;;;;;;;0.90;0.80;;;7.50;99.90;;;;;;5033760;28;20414;-69
2021/03/13 04:54:19;;;;;;;1.17;1.07;;;7.50;99.90;;;;;;5034715;28;20174;-69
2021/03/13 04:56:45;;;;;;;1.47;1.37;;;7.50;99.90;;;;;;5037253;28;20937;-70
2021/03/13 04:59:10;;;;;;;0.97;0.90;;;7.50;99.90;;;;;;5037517;28;20174;-69
2021/03/13 05:01:36;;;;;;;3.87;1.07;;;7.50;99.90;;;;;;5037897;28;20264;-70
2021/03/13 05:04:02;;;;;;;1.07;1.07;;;7.50;99.90;;;;;;5038278;28;20918;-69
2021/03/13 05:06:27;;;;;;;1.10;1.00;;;7.50;99.90;;;;;;5039091;28;20590;-69
2021/03/13 05:08:53;;;;;;;0.93;0.93;;;7.40;99.90;;;;;;5037437;28;20247;-69
2021/03/13 05:11:18;;;;;;;1.10;1.00;;;7.50;99.90;;;;;;5037351;28;20191;-69
2021/03/13 05:13:44;;;;;;;0.80;0.80;;;7.50;99.90;;;;;;5037966;28;20257;-69
2021/03/13 05:16:10;;;;;;;0.90;0.90;;;7.50;99.90;;;;;;5038793;28;20191;-69
2021/03/13 05:18:36;;;;;;;1.10;1.00;;;7.50;99.90;;;;;;5037310;28;20475;-69
2021/03/13 05:21:02;;;;;;;1.63;1.00;;;7.50;99.90;;;;;;5037350;28;20664;-69
2021/03/13 05:23:28;;;;;;;2.87;1.20;;;7.50;99.90;;;;;;5037988;28;20172;-69
2021/03/13 05:25:53;;;;;;;1.33;1.10;;;7.50;99.90;;;;;;5037648;28;20814;-70
2021/03/13 05:28:19;;;;;;;1.17;1.07;;;7.50;99.90;;;;;;5045749;28;20253;-70
2021/03/13 05:30:45;;;;;;;1.63;0.80;;;7.50;99.90;;;;;;5051357;28;20217;-70
2021/03/13 05:33:10;;;;;;;0.93;0.93;;;7.50;99.90;;;;;;5052292;28;20332;-70
2021/03/13 05:35:38;;;;;;;1.63;0.83;;;7.50;99.90;;;;;;5040716;28;20457;-69
2021/03/13 05:38:04;;;;;;;1.13;1.07;;;7.50;99.90;;;;;;5038150;28;20175;-69
2021/03/13 05:40:30;;;;;;;0.83;0.80;;;7.60;99.90;;;;;;5037243;28;20436;-69
2021/03/13 05:42:56;;;;;;;0.97;0.97;;;7.60;99.90;;;;;;5037237;28;20421;-70
2021/03/13 05:45:21;;;;;;;1.30;1.20;;;7.50;99.90;;;;;;5037222;28;20199;-69
2021/03/13 05:47:48;;;;;;;0.97;0.93;;;7.60;99.90;;;;;;5038251;28;20207;-70
2021/03/13 05:50:16;;;;;;;1.43;1.03;;;7.60;99.90;;;;;;5037446;28;20664;-70
2021/03/13 05:52:46;;;;;;;1.30;1.10;;;7.60;99.90;;;;;;5036985;28;20406;-69
2021/03/13 05:55:12;;;;;;;1.70;1.20;;;7.60;99.90;;;;;;5036750;28;20406;-69
2021/03/13 05:57:38;;;;;;;1.07;1.00;;;7.70;99.90;;;;;;5036851;28;20547;-69
2021/03/13 06:00:06;;;;;;;1.87;1.20;;;7.60;99.90;;;;;;5037303;28;20847;-69
2021/03/13 06:02:32;;;;;;;0.80;0.80;;;7.60;99.90;;;;;;5037124;28;20170;-70
2021/03/13 06:04:58;;;;;;;2.40;1.10;;;7.70;99.90;;;;;;5036657;28;20558;-70
2021/03/13 06:07:25;;;;;;;1.30;1.03;;;7.60;99.90;;;;;;5035257;28;20437;-69
2021/03/13 06:09:55;;;;;;;1.30;0.90;;;7.70;99.90;;;;;;5037113;28;20784;-69
2021/03/13 06:12:22;;;;;;;1.23;1.13;;;7.70;99.90;;;;;;5036215;28;20884;-68
2021/03/13 06:14:51;;;;;;;1.50;1.20;;;7.80;99.90;;;;;;5035914;28;20432;-70
2021/03/13 06:17:18;;;;;;;2.33;1.10;;;7.80;99.90;;;;;;5036280;28;20777;-70
2021/03/13 06:19:51;;;;;;;0.70;0.70;;;7.80;99.90;;;;;;5036913;28;20448;-68
2021/03/13 06:22:37;;;;;;;1.40;0.90;;;7.80;99.90;;;;;;5036565;28;20421;-68
2021/03/13 06:25:19;;;;;;;1.10;0.83;;;7.90;99.90;;;;;;5036424;28;20449;-69
2021/03/13 06:28:15;;;;;;;1.00;0.97;;;7.90;99.90;;;;;;5036207;28;20860;-69
2021/03/13 06:30:44;;;;;;;2.63;1.13;;;7.90;99.90;;;;;;5037397;28;21015;-68
2021/03/13 06:33:32;;;;;;;1.23;1.00;;;8.00;99.90;;;;;;5037572;28;20957;-70
2021/03/13 06:36:03;;;;;;;1.20;1.10;;;7.90;99.90;;;;;;5047664;28;20764;-70
2021/03/13 06:38:31;;;;;;;1.87;1.50;;;7.90;99.90;;;;;;5055494;28;20420;-69
2021/03/13 06:41:09;;;;;;;1.10;1.00;;;8.00;99.90;;;;;;5054432;28;20445;-70
2021/03/13 06:43:35;;;;;;;1.30;1.20;;;8.00;99.90;;;;;;5036303;28;20419;-69
2021/03/13 06:46:09;;;;;;;2.23;1.90;;;8.00;99.90;;;;;;5038928;28;20468;-70
2021/03/13 06:48:50;;;;;;;2.50;1.27;;;8.10;99.90;;;;;;5039133;28;20514;-69
2021/03/13 06:51:32;;;;;;;1.80;1.10;;;8.10;99.90;;;;;;5037118;28;20435;-70
2021/03/13 06:54:02;;;;;;;1.50;1.20;;;8.10;99.90;;;;;;5035229;28;20481;-70
2021/03/13 06:56:42;;;;;;;4.47;1.60;;;8.10;99.90;;;;;;5036015;28;20540;-70
2021/03/13 06:59:19;;;;;;;2.60;1.10;;;8.10;99.90;;;;;;5036024;28;20423;-69
2021/03/13 07:01:45;;;;;;;1.80;1.30;;;8.10;99.90;;;;;;5035559;28;20407;-69
2021/03/13 07:04:12;;;;;;;1.40;1.00;;;8.10;99.90;;;;;;5036736;28;20864;-70
2021/03/13 07:06:46;;;;;;;1.10;1.00;;;8.20;99.90;;;;;;5043386;28;20981;-69
2021/03/13 07:09:12;;;;;;;1.80;1.00;;;8.20;99.90;;;;;;5039220;28;20500;-69
2021/03/13 07:11:38;;;;;;;1.70;1.07;;;8.20;99.90;;;;;;5038565;28;20439;-69
2021/03/13 07:14:04;;;;;;;1.07;0.90;;;8.20;99.90;;;;;;5048979;28;20523;-69
2021/03/13 07:16:37;;;;;;;0.93;0.80;;;8.20;99.90;;;;;;5044938;28;20477;-69
2021/03/13 07:19:11;;;;;;;1.27;1.07;;;8.20;99.90;;;;;;5044106;28;20418;-69
2021/03/13 07:21:40;;;;;;;0.80;0.80;;;8.20;99.90;;;;;;5043550;28;20451;-70
2021/03/13 07:24:07;;;;;;;3.00;0.90;;;8.20;99.90;;;;;;5048701;28;20487;-70
2021/03/13 07:26:35;;;;;;;2.10;1.13;;;8.20;99.90;;;;;;5046067;28;20481;-69
2021/03/13 07:29:01;;;;;;;1.90;1.13;;;8.20;99.90;;;;;;5045495;28;20425;-68
2021/03/13 07:31:31;;;;;;;1.87;1.07;;;8.20;99.90;;;;;;5035788;28;20434;-69
2021/03/13 07:34:00;;;;;;;3.93;1.63;;;8.30;99.90;;;;;;5041545;28;20437;-70
2021/03/13 07:36:26;;;;;;;1.70;1.10;;;8.30;99.90;;;;;;5049659;28;20795;-68
2021/03/13 07:38:58;;;;;;;2.40;1.27;;;8.30;99.90;;;;;;5045065;28;20431;-68
2021/03/13 07:41:25;;;;;;;2.67;1.60;;;8.30;99.90;;;;;;5051348;28;20456;-69
2021/03/13 07:43:52;;;;;;;2.40;2.20;;;8.30;99.90;;;;;;5050176;28;20430;-68
2021/03/13 07:46:22;;;;;;;1.67;1.20;;;8.30;99.90;;;;;;5047777;28;20611;-70
2021/03/13 07:48:48;;;;;;;1.40;1.27;;;8.20;99.90;;;;;;5054126;28;20610;-70
2021/03/13 07:51:14;;;;;;;;;;;8.20;99.90;;;;;;5058676;28;20438;-70
2021/03/13 07:53:42;;;;;;;1.17;0.87;;;8.10;99.90;;;;;;5062945;28;20183;-70
2021/03/13 07:56:12;;;;;;;0.93;0.83;;;7.90;99.90;;;;;;5049115;28;20167;-68
2021/03/13 07:58:43;;;;;;;2.07;1.37;;;7.40;99.90;;;;;;5034756;28;20763;-70
2021/03/13 08:01:12;;;;;;;2.57;0.90;;;7.10;99.90;;;;;;5033775;28;20521;-70
2021/03/13 08:03:40;;;;;;;3.03;1.03;;;6.90;99.90;;;;;;5046389;28;20446;-69
2021/03/13 08:06:08;;;;;;;1.30;1.10;;;6.80;99.90;;;;;;5039320;28;20958;-70
2021/03/13 08:08:36;;;;;;;2.30;0.90;;;6.70;99.90;;;;;;5042439;28;20501;-70
2021/03/13 08:11:04;;;;;;;2.50;1.10;;;6.70;99.90;;;;;;5034374;28;20417;-69
2021/03/13 08:13:29;;;;;;;2.53;0.97;;;6.60;99.90;;;;;;5034711;28;20409;-70
2021/03/13 08:16:30;;;;;;;1.33;1.23;;;6.60;99.90;;;;;;5033339;28;20426;-69
2021/03/13 08:18:57;;;;;;;1.37;0.70;;;6.70;99.90;;;;;;5033196;28;20587;-69
2021/03/13 08:21:23;;;;;;;3.03;1.10;;;6.70;99.90;;;;;;5034006;28;20976;-70
2021/03/13 08:23:55;;;;;;;1.60;1.07;;;6.70;99.90;;;;;;5035644;28;20406;-70
2021/03/13 08:26:42;;;;;;;1.60;0.83;;;6.70;99.90;;;;;;5045859;28;20271;-68
2021/03/13 08:29:08;;;;;;;1.30;1.20;;;6.70;99.90;;;;;;5042137;28;20436;-69
2021/03/13 08:31:44;;;;;;;0.93;0.83;;;6.80;99.90;;;;;;5042900;28;20460;-68
2021/03/13 08:34:10;;;;;;;2.13;0.90;;;6.80;99.90;;;;;;5047466;28;20182;-69
2021/03/13 08:36:46;;;;;;;1.53;0.90;;;6.90;99.90;;;;;;5046748;28;20436;-68
2021/03/13 08:39:14;;;;;;;3.63;1.60;;;6.90;99.90;;;;;;5046526;28;20193;-71
2021/03/13 08:41:42;;;;;;;1.63;1.30;;;6.90;99.90;;;;;;5049211;28;20450;-70
2021/03/13 08:44:23;;;;;;;2.83;1.20;;;6.90;99.90;;;;;;5050947;28;20413;-69
2021/03/13 08:46:59;;;;;;;1.07;1.00;;;6.90;99.90;;;;;;5065501;28;20462;-69
2021/03/13 08:49:24;;;;;;;2.30;1.50;;;6.90;99.90;;;;;;5053626;28;20419;-69
2021/03/13 08:52:08;;;;;;;2.57;1.10;;;7.00;99.90;;;;;;5060986;28;20802;-69
2021/03/13 08:57:39;;;;;;;1.40;1.30;;;7.00;99.90;;;;;;5044427;28;20431;-71
2021/03/13 09:00:07;;;;;;;1.77;1.10;;;7.10;99.90;;;;;;5049988;28;20993;-71
2021/03/13 09:02:36;;;;;;;2.03;1.03;;;7.20;99.90;;;;;;5065652;28;20436;-69
2021/03/13 09:05:05;;;;;;;2.50;1.10;;;7.20;99.90;;;;;;5053919;28;20408;-69
2021/03/13 09:07:32;;;;;;;1.60;1.17;;;7.30;99.90;;;;;;5059822;28;20424;-71
2021/03/13 09:09:58;;;;;;;1.50;0.90;;;7.30;99.90;;;;;;5057818;28;20439;-70
2021/03/13 09:12:32;;;;;;;1.80;0.80;;;7.30;99.90;;;;;;5047716;28;20447;-70
2021/03/13 09:15:00;;;;;;;2.60;0.77;;;7.40;99.90;;;;;;5048716;28;20400;-70
2021/03/13 09:17:28;;;;;;;1.43;1.00;;;7.50;99.90;;;;;;5060322;28;20447;-70
2021/03/13 09:19:54;;;;;;;2.93;1.20;;;7.50;99.90;;;;;;5059242;28;21106;-69
2021/03/13 09:22:25;;;;;;;2.60;0.80;;;7.50;99.90;;;;;;5082142;28;20438;-69
2021/03/13 09:24:55;;;;;;;1.33;0.70;;;7.50;99.90;;;;;;5071916;28;20465;-70
2021/03/13 09:27:25;;;;;;;3.07;1.17;;;7.60;99.90;;;;;;5065598;28;20417;-68
2021/03/13 09:29:53;;;;;;;2.37;1.40;;;7.70;99.90;;;;;;5055362;28;20445;-68
2021/03/13 09:32:20;;;;;;;2.10;1.30;;;7.70;99.90;;;;;;5046291;28;20920;-69
2021/03/13 09:34:48;;;;;;;2.00;1.10;;;7.80;99.90;;;;;;5053208;28;20448;-70
2021/03/13 09:37:27;;;;;;;1.57;1.40;;;7.80;99.90;;;;;;5055183;28;20433;-69
2021/03/13 09:39:58;;;;;;;1.27;1.00;;;7.90;99.90;;;;;;5056287;28;20472;-70
2021/03/13 09:42:25;;;;;;;1.87;1.63;;;7.80;99.90;;;;;;5044538;28;20524;-69
2021/03/13 09:44:57;;;;;;;2.80;1.50;;;7.90;99.90;;;;;;5044950;28;20446;-69
2021/03/13 09:47:41;;;;;;;2.60;1.60;;;7.80;99.90;;;;;;5049042;28;20423;-71
2021/03/13 09:50:19;;;;;;;3.00;1.50;;;7.80;99.90;;;;;;5067047;28;20188;-68
2021/03/13 09:52:47;;;;;;;2.00;1.27;;;7.80;99.90;;;;;;5057066;28;20412;-69
2021/03/13 09:55:16;;;;;;;6.43;1.97;;;7.90;99.90;;;;;;5060237;28;20408;-70
2021/03/13 09:57:51;;;;;;;3.93;1.23;;;7.90;99.90;;;;;;5057245;28;20441;-69
2021/03/13 10:00:23;;;;;;;2.33;1.67;;;8.00;99.90;;;;;;5055505;28;20443;-69
2021/03/13 10:02:50;;;;;;;3.40;2.00;;;8.10;99.90;;;;;;5057653;28;20444;-69
2021/03/13 10:05:18;;;;;;;4.70;1.60;;;8.10;99.90;;;;;;5051217;28;20458;-70
2021/03/13 10:07:46;;;;;;;2.97;1.33;;;8.10;99.90;;;;;;5058715;28;20425;-69
2021/03/13 10:10:16;;;;;;;4.53;1.30;;;8.10;99.90;;;;;;5053088;28;20432;-70
2021/03/13 10:12:45;;;;;;;4.00;1.53;;;8.20;99.90;;;;;;5055194;28;20476;-68
2021/03/13 10:15:11;;;;;;;4.43;2.60;;;8.20;99.90;;;;;;5064479;28;20450;-70
2021/03/13 10:17:58;;;;;;;4.37;2.20;;;8.20;99.90;;;;;;5051532;28;20480;-69
2021/03/13 10:20:36;;;;;;;4.63;2.60;;;8.20;99.90;;;;;;5050082;28;20441;-69
2021/03/13 10:23:12;;;;;;;5.67;2.07;;;8.10;99.90;;;;;;5052679;28;20459;-68
2021/03/13 10:25:41;;;;;;;5.35;2.20;;;8.10;99.90;;;;;;5052180;28;20434;-69
2021/03/13 10:28:09;;;;;;;2.73;1.80;;;8.10;99.90;;;;;;5066129;28;20226;-69
2021/03/13 10:30:36;;;;;;;5.50;2.90;;;8.20;99.90;;;;;;5044169;28;20960;-69
2021/03/13 10:33:02;;;;;;;8.20;2.27;;;8.30;99.90;;;;;;5067227;28;20830;-70
2021/03/13 10:35:30;;;;;;;3.47;1.73;;;8.30;99.90;;;;;;5051773;28;20418;-69
2021/03/13 10:38:01;;;;;;;9.83;2.33;;;8.30;99.90;;;;;;5047246;28;20220;-69
2021/03/13 10:40:34;;;;;;;5.53;1.97;;;8.40;99.90;;;;;;5051776;28;20504;-69
2021/03/13 10:43:14;;;;;;;7.60;2.17;;;8.50;99.90;;;;;;5056529;28;20482;-69
2021/03/13 10:45:41;;;;;;;3.73;1.67;;;8.50;99.90;;;;;;5061502;28;20508;-68
2021/03/13 10:48:09;;;;;;;5.00;2.43;;;8.60;99.90;;;;;;5057719;28;20463;-69
2021/03/13 10:50:35;;;;;;;3.00;2.03;;;8.70;99.90;;;;;;5059012;28;20855;-68
2021/03/13 10:53:25;;;;;;;4.63;1.73;;;8.80;99.90;;;;;;5061270;28;20412;-69
2021/03/13 10:56:01;;;;;;;8.57;2.03;;;8.90;99.90;;;;;;5060333;28;20448;-69
2021/03/13 10:58:32;;;;;;;6.87;2.30;;;9.00;99.90;;;;;;5053445;28;20899;-69
2021/03/13 11:00:59;;;;;;;6.07;2.23;;;8.90;99.90;;;;;;5067349;28;20429;-70
2021/03/13 11:03:25;;;;;;;2.70;1.90;;;8.90;99.90;;;;;;5055918;28;20963;-68
2021/03/13 11:05:52;;;;;;;8.60;2.97;;;9.10;99.90;;;;;;5052712;28;20465;-70
2021/03/13 11:08:19;;;;;;;6.27;2.33;;;9.10;99.90;;;;;;5067305;28;20989;-69
2021/03/13 11:10:45;;;;;;;7.90;2.20;;;9.10;99.90;;;;;;5044193;28;20475;-70
2021/03/13 11:13:11;;;;;;;4.67;2.27;;;9.00;99.90;;;;;;5068458;28;20419;-69
2021/03/13 11:15:37;;;;;;;7.03;2.33;;;9.00;99.90;;;;;;5064754;28;20908;-70
2021/03/13 11:18:03;;;;;;;4.50;2.13;;;8.80;99.90;;;;;;5059064;28;20177;-71
2021/03/13 11:20:29;;;;;;;4.93;2.10;;;8.80;99.90;;;;;;5041218;28;20212;-71
2021/03/13 11:22:54;;;;;;;7.40;2.20;;;8.80;99.90;;;;;;5066681;28;20432;-70
2021/03/13 11:25:20;;;;;;;5.47;2.10;;;8.80;99.90;;;;;;5059181;28;20196;-70
2021/03/13 11:27:46;;;;;;;6.23;1.90;;;8.80;99.90;;;;;;5065455;28;20189;-70
2021/03/13 11:30:12;;;;;;;3.73;2.00;;;8.90;99.90;;;;;;5054856;28;20213;-70
2021/03/13 11:32:37;;;;;;;7.53;1.80;;;8.90;99.50;;;;;;5058909;28;20183;-70
2021/03/13 11:35:07;;;;;;;9.70;2.47;;;8.90;99.40;;;;;;5064647;28;20405;-69
2021/03/13 11:37:34;;;;;;;4.60;2.03;;;8.90;99.60;;;;;;5051441;28;20306;-71
2021/03/13 11:40:00;;;;;;;3.47;2.37;;;8.90;99.30;;;;;;5063980;28;20506;-70
2021/03/13 11:42:28;;;;;;;3.83;1.73;;;9.00;99.00;;;;;;5065281;28;20443;-71
2021/03/13 11:44:56;;;;;;;2.90;1.90;;;9.00;99.30;;;;;;5053073;28;20503;-70
2021/03/13 11:47:22;;;;;;;4.33;1.93;;;9.10;99.00;;;;;;5063266;28;20420;-70
2021/03/13 11:49:48;;;;;;;4.80;2.10;;;9.20;99.00;;;;;;5062350;28;20439;-71
2021/03/13 11:52:13;;;;;;;8.10;3.30;;;9.20;98.80;;;;;;5044705;28;20451;-70
2021/03/13 11:54:39;;;;;;;5.73;1.60;;;9.30;98.80;;;;;;5066008;28;20858;-70
2021/03/13 11:57:05;;;;;;;5.10;2.17;;;9.30;98.70;;;;;;5056311;28;20191;-70
2021/03/13 11:59:30;;;;;;;7.90;2.20;;;9.20;99.20;;;;;;5061801;28;20192;-70
2021/03/13 12:01:56;;;;;;;5.47;2.37;;;9.20;99.60;;;;;;5056911;28;21077;-69
2021/03/13 12:04:21;;;;;;;5.00;2.50;;;9.30;99.20;;;;;;5054665;28;20530;-70
2021/03/13 12:06:47;;;;;;;14.27;5.30;;;9.20;98.50;;;;;;5067119;28;20232;-72
2021/03/13 12:09:12;;;;;;;6.40;1.97;;;9.30;98.30;;;;;;5056942;28;20231;-69
2021/03/13 12:11:38;;;;;;;6.70;2.70;;;9.30;98.40;;;;;;5059845;28;20617;-70
2021/03/13 12:14:03;;;;;;;9.20;3.10;;;9.30;98.50;;;;;;5062213;28;20180;-69
2021/03/13 12:16:29;;;;;;;5.70;2.43;;;9.40;98.40;;;;;;5054125;28;20178;-69
2021/03/13 12:18:56;;;;;;;5.07;2.33;;;9.40;98.50;;;;;;5066178;28;20412;-71
2021/03/13 12:21:22;;;;;;;4.97;2.10;;;9.60;99.00;;;;;;5057742;28;20634;-71
2021/03/13 12:23:47;;;;;;;9.90;2.83;;;9.50;98.80;;;;;;5051012;28;20439;-70
2021/03/13 12:26:13;;;;;;;7.97;2.73;;;9.60;99.00;;;;;;5052862;28;20960;-70
2021/03/13 12:28:38;;;;;;;4.73;2.63;;;9.60;99.10;;;;;;5065337;28;20184;-72
2021/03/13 12:31:04;;;;;;;8.43;2.30;;;9.70;99.20;;;;;;5054486;28;20217;-71
2021/03/13 12:33:29;;;;;;;6.43;2.20;;;9.70;99.20;;;;;;5059792;28;20184;-70
2021/03/13 12:35:55;;;;;;;7.00;2.70;;;9.70;99.30;;;;;;5054648;28;20554;-69
2021/03/13 12:38:20;;;;;;;7.37;2.30;;;9.60;99.30;;;;;;5053067;28;20638;-70
2021/03/13 12:40:46;;;;;;;7.27;1.97;;;9.60;99.30;;;;;;5063437;28;20198;-70
2021/03/13 12:43:12;;;;;;;7.90;2.67;;;9.40;99.30;;;;;;5057394;28;20263;-70
2021/03/13 12:45:37;;;;;;;7.10;3.27;;;9.10;99.90;;;;;;5057106;28;20246;-70
2021/03/13 12:48:03;;;;;;;9.80;1.90;;;9.00;99.90;;;;;;5053422;28;20213;-71
2021/03/13 12:50:28;;;;;;;3.63;1.93;;;8.80;99.90;;;;;;5066875;28;20236;-70
2021/03/13 12:52:54;;;;;;;6.93;2.40;;;8.70;99.90;;;;;;5049428;28;20196;-71
2021/03/13 12:55:20;;;;;;;5.57;1.90;;;8.50;99.90;;;;;;5047644;28;20582;-71
2021/03/13 12:57:46;;;;;;;3.40;1.47;;;8.50;99.90;;;;;;5063252;28;20175;-72
2021/03/13 13:00:13;;;;;;;3.20;1.70;;;8.60;99.90;;;;;;5072530;28;20451;-70
2021/03/13 13:02:38;;;;;;;7.00;2.13;;;8.80;99.90;;;;;;5079062;28;20806;-71
2021/03/13 13:05:05;;;;;;;6.03;2.10;;;8.70;99.90;;;;;;5055844;28;20424;-71
2021/03/13 13:07:30;;;;;;;6.60;1.70;;;8.70;99.90;;;;;;5051957;28;20263;-71
2021/03/13 13:09:56;;;;;;;4.30;1.60;;;8.70;99.90;;;;;;5044930;28;20469;-70